sensor_id;sensor_type;location;lat;lon;timestamp;P1;durP1;ratioP1;P2;durP2;ratioP2
20251;SDS011;10284;58.364;15.550;2023-01-24T00:01:57;3.65;;;2.33;;
20251;SDS011;10284;58.364;15.550;2023-01-24T00:04:22;2.92;;;2.40;;
20251;SDS011;10284;58.364;15.550;2023-01-24T00:06:48;3.15;;;2.60;;
20251;SDS011;10284;58.364;15.550;2023-01-24T00:09:13;2.60;;;2.40;;
20251;SDS011;10284;58.364;15.550;2023-01-24T00:11:39;2.35;;;2.10;;
20251;SDS011;10284;58.364;15.550;2023-01-24T00:14:04;2.83;;;2.40;;
20251;SDS011;10284;58.364;15.550;2023-01-24T00:16:30;3.20;;;2.67;;
20251;SDS011;10284;58.364;15.550;2023-01-24T00:18:55;2.78;;;2.40;;
20251;SDS011;10284;58.364;15.550;2023-01-24T00:21:22;5.00;;;2.30;;
20251;SDS011;10284;58.364;15.550;2023-01-24T00:23:49;4.68;;;2.45;;
20251;SDS011;10284;58.364;15.550;2023-01-24T00:26:16;4.68;;;2.30;;
20251;SDS011;10284;58.364;15.550;2023-01-24T00:28:43;3.25;;;1.92;;
20251;SDS011;10284;58.364;15.550;2023-01-24T00:31:08;2.22;;;2.03;;
20251;SDS011;10284;58.364;15.550;2023-01-24T00:33:34;4.00;;;2.20;;
20251;SDS011;10284;58.364;15.550;2023-01-24T00:35:59;3.22;;;2.10;;
20251;SDS011;10284;58.364;15.550;2023-01-24T00:38:25;2.72;;;2.30;;
20251;SDS011;10284;58.364;15.550;2023-01-24T00:40:51;2.80;;;2.20;;
20251;SDS011;10284;58.364;15.550;2023-01-24T00:43:16;2.10;;;1.90;;
20251;SDS011;10284;58.364;15.550;2023-01-24T00:45:43;4.75;;;2.22;;
20251;SDS011;10284;58.364;15.550;2023-01-24T00:48:09;3.90;;;2.10;;
20251;SDS011;10284;58.364;15.550;2023-01-24T00:50:35;1.90;;;1.75;;
20251;SDS011;10284;58.364;15.550;2023-01-24T00:53:01;2.83;;;2.00;;
20251;SDS011;10284;58.364;15.550;2023-01-24T00:55:27;4.70;;;2.15;;
20251;SDS011;10284;58.364;15.550;2023-01-24T00:57:53;3.70;;;2.30;;
20251;SDS011;10284;58.364;15.550;2023-01-24T01:00:19;2.42;;;2.22;;
20251;SDS011;10284;58.364;15.550;2023-01-24T01:02:45;2.35;;;2.15;;
20251;SDS011;10284;58.364;15.550;2023-01-24T01:05:10;1.80;;;1.70;;
20251;SDS011;10284;58.364;15.550;2023-01-24T01:07:36;2.40;;;1.98;;
20251;SDS011;10284;58.364;15.550;2023-01-24T01:10:02;2.58;;;1.77;;
20251;SDS011;10284;58.364;15.550;2023-01-24T01:12:28;3.20;;;1.80;;
20251;SDS011;10284;58.364;15.550;2023-01-24T01:14:53;3.60;;;1.90;;
20251;SDS011;10284;58.364;15.550;2023-01-24T01:17:19;5.82;;;2.03;;
20251;SDS011;10284;58.364;15.550;2023-01-24T01:19:44;2.33;;;2.00;;
20251;SDS011;10284;58.364;15.550;2023-01-24T01:22:10;3.03;;;1.98;;
20251;SDS011;10284;58.364;15.550;2023-01-24T01:24:35;1.98;;;1.70;;
20251;SDS011;10284;58.364;15.550;2023-01-24T01:27:01;2.10;;;1.83;;
20251;SDS011;10284;58.364;15.550;2023-01-24T01:29:27;2.45;;;2.22;;
20251;SDS011;10284;58.364;15.550;2023-01-24T01:31:52;2.58;;;2.10;;
20251;SDS011;10284;58.364;15.550;2023-01-24T01:34:18;3.03;;;2.10;;
20251;SDS011;10284;58.364;15.550;2023-01-24T01:36:43;5.50;;;2.28;;
20251;SDS011;10284;58.364;15.550;2023-01-24T01:39:09;2.13;;;1.92;;
20251;SDS011;10284;58.364;15.550;2023-01-24T01:41:34;2.58;;;2.08;;
20251;SDS011;10284;58.364;15.550;2023-01-24T01:47:06;4.60;;;2.20;;
20251;SDS011;10284;58.364;15.550;2023-01-24T01:55:19;2.83;;;2.15;;
20251;SDS011;10284;58.364;15.550;2023-01-24T01:57:47;2.80;;;1.95;;
20251;SDS011;10284;58.364;15.550;2023-01-24T02:00:18;2.50;;;1.80;;
20251;SDS011;10284;58.364;15.550;2023-01-24T02:02:48;2.70;;;2.05;;
20251;SDS011;10284;58.364;15.550;2023-01-24T02:05:18;2.20;;;1.85;;
20251;SDS011;10284;58.364;15.550;2023-01-24T02:07:50;2.38;;;2.00;;
20251;SDS011;10284;58.364;15.550;2023-01-24T02:10:19;4.90;;;1.88;;
20251;SDS011;10284;58.364;15.550;2023-01-24T02:12:46;4.90;;;2.40;;
20251;SDS011;10284;58.364;15.550;2023-01-24T02:15:17;2.22;;;2.08;;
20251;SDS011;10284;58.364;15.550;2023-01-24T02:18:02;2.15;;;1.95;;
20251;SDS011;10284;58.364;15.550;2023-01-24T02:20:40;2.38;;;2.17;;
20251;SDS011;10284;58.364;15.550;2023-01-24T02:26:04;3.85;;;2.50;;
20251;SDS011;10284;58.364;15.550;2023-01-24T02:28:30;5.03;;;2.65;;
20251;SDS011;10284;58.364;15.550;2023-01-24T02:30:59;2.92;;;2.47;;
20251;SDS011;10284;58.364;15.550;2023-01-24T02:33:25;5.30;;;2.60;;
20251;SDS011;10284;58.364;15.550;2023-01-24T02:35:51;3.42;;;2.63;;
20251;SDS011;10284;58.364;15.550;2023-01-24T02:38:44;2.97;;;2.50;;
20251;SDS011;10284;58.364;15.550;2023-01-24T02:41:12;7.10;;;2.70;;
20251;SDS011;10284;58.364;15.550;2023-01-24T02:43:40;2.63;;;2.42;;
20251;SDS011;10284;58.364;15.550;2023-01-24T02:46:09;3.90;;;2.40;;
20251;SDS011;10284;58.364;15.550;2023-01-24T02:48:35;3.03;;;2.30;;
20251;SDS011;10284;58.364;15.550;2023-01-24T02:51:00;3.63;;;2.38;;
20251;SDS011;10284;58.364;15.550;2023-01-24T02:53:44;2.67;;;2.28;;
20251;SDS011;10284;58.364;15.550;2023-01-24T02:56:10;2.40;;;2.20;;
20251;SDS011;10284;58.364;15.550;2023-01-24T02:58:54;3.10;;;2.78;;
20251;SDS011;10284;58.364;15.550;2023-01-24T03:01:21;3.35;;;2.60;;
20251;SDS011;10284;58.364;15.550;2023-01-24T03:03:47;3.35;;;2.50;;
20251;SDS011;10284;58.364;15.550;2023-01-24T03:06:13;3.28;;;2.50;;
20251;SDS011;10284;58.364;15.550;2023-01-24T03:08:40;4.95;;;2.67;;
20251;SDS011;10284;58.364;15.550;2023-01-24T03:11:06;3.72;;;2.90;;
20251;SDS011;10284;58.364;15.550;2023-01-24T03:13:32;4.47;;;2.63;;
20251;SDS011;10284;58.364;15.550;2023-01-24T03:16:16;4.57;;;3.03;;
20251;SDS011;10284;58.364;15.550;2023-01-24T03:19:00;4.43;;;2.90;;
20251;SDS011;10284;58.364;15.550;2023-01-24T03:21:44;4.65;;;2.55;;
20251;SDS011;10284;58.364;15.550;2023-01-24T03:24:29;3.10;;;2.47;;
20251;SDS011;10284;58.364;15.550;2023-01-24T03:27:13;6.93;;;2.70;;
20251;SDS011;10284;58.364;15.550;2023-01-24T03:29:57;3.20;;;2.50;;
20251;SDS011;10284;58.364;15.550;2023-01-24T03:32:41;4.20;;;2.95;;
20251;SDS011;10284;58.364;15.550;2023-01-24T03:35:25;5.07;;;2.67;;
20251;SDS011;10284;58.364;15.550;2023-01-24T03:37:51;3.63;;;2.63;;
20251;SDS011;10284;58.364;15.550;2023-01-24T03:40:35;4.22;;;2.70;;
20251;SDS011;10284;58.364;15.550;2023-01-24T03:43:00;3.08;;;2.78;;
20251;SDS011;10284;58.364;15.550;2023-01-24T03:45:27;2.80;;;2.60;;
20251;SDS011;10284;58.364;15.550;2023-01-24T03:47:59;5.85;;;2.88;;
20251;SDS011;10284;58.364;15.550;2023-01-24T03:50:27;5.10;;;2.55;;
20251;SDS011;10284;58.364;15.550;2023-01-24T03:53:13;3.08;;;2.58;;
20251;SDS011;10284;58.364;15.550;2023-01-24T03:55:39;2.70;;;2.35;;
20251;SDS011;10284;58.364;15.550;2023-01-24T03:58:05;5.60;;;2.60;;
20251;SDS011;10284;58.364;15.550;2023-01-24T04:00:31;3.97;;;2.47;;
20251;SDS011;10284;58.364;15.550;2023-01-24T04:02:57;4.60;;;3.05;;
20251;SDS011;10284;58.364;15.550;2023-01-24T04:05:23;4.68;;;2.75;;
20251;SDS011;10284;58.364;15.550;2023-01-24T04:07:49;3.85;;;2.33;;
20251;SDS011;10284;58.364;15.550;2023-01-24T04:10:15;3.08;;;2.78;;
20251;SDS011;10284;58.364;15.550;2023-01-24T04:12:41;3.17;;;2.67;;
20251;SDS011;10284;58.364;15.550;2023-01-24T04:15:08;5.35;;;3.00;;
20251;SDS011;10284;58.364;15.550;2023-01-24T04:17:34;3.28;;;2.75;;
20251;SDS011;10284;58.364;15.550;2023-01-24T04:19:59;2.90;;;2.60;;
20251;SDS011;10284;58.364;15.550;2023-01-24T04:22:25;4.57;;;3.03;;
20251;SDS011;10284;58.364;15.550;2023-01-24T04:24:50;2.70;;;2.50;;
20251;SDS011;10284;58.364;15.550;2023-01-24T04:27:16;3.42;;;2.63;;
20251;SDS011;10284;58.364;15.550;2023-01-24T04:29:41;4.40;;;2.90;;
20251;SDS011;10284;58.364;15.550;2023-01-24T04:32:07;4.05;;;2.80;;
20251;SDS011;10284;58.364;15.550;2023-01-24T04:34:33;4.32;;;3.03;;
20251;SDS011;10284;58.364;15.550;2023-01-24T04:36:58;4.10;;;3.20;;
20251;SDS011;10284;58.364;15.550;2023-01-24T04:39:24;3.20;;;2.90;;
20251;SDS011;10284;58.364;15.550;2023-01-24T04:41:49;4.38;;;3.00;;
20251;SDS011;10284;58.364;15.550;2023-01-24T04:44:15;4.95;;;2.95;;
20251;SDS011;10284;58.364;15.550;2023-01-24T04:46:40;2.97;;;2.67;;
20251;SDS011;10284;58.364;15.550;2023-01-24T04:49:06;3.67;;;3.25;;
20251;SDS011;10284;58.364;15.550;2023-01-24T04:51:31;4.63;;;2.60;;
20251;SDS011;10284;58.364;15.550;2023-01-24T04:53:56;5.13;;;3.05;;
20251;SDS011;10284;58.364;15.550;2023-01-24T04:56:22;3.72;;;2.97;;
20251;SDS011;10284;58.364;15.550;2023-01-24T04:58:47;4.75;;;3.00;;
20251;SDS011;10284;58.364;15.550;2023-01-24T05:01:13;4.38;;;3.03;;
20251;SDS011;10284;58.364;15.550;2023-01-24T05:03:38;3.90;;;2.97;;
20251;SDS011;10284;58.364;15.550;2023-01-24T05:06:04;5.10;;;3.15;;
20251;SDS011;10284;58.364;15.550;2023-01-24T05:08:29;4.25;;;3.30;;
20251;SDS011;10284;58.364;15.550;2023-01-24T05:10:55;3.30;;;3.00;;
20251;SDS011;10284;58.364;15.550;2023-01-24T05:13:20;8.38;;;3.70;;
20251;SDS011;10284;58.364;15.550;2023-01-24T05:15:49;5.55;;;3.38;;
20251;SDS011;10284;58.364;15.550;2023-01-24T05:18:15;4.93;;;3.20;;
20251;SDS011;10284;58.364;15.550;2023-01-24T05:20:41;5.93;;;3.25;;
20251;SDS011;10284;58.364;15.550;2023-01-24T05:23:06;4.28;;;3.10;;
20251;SDS011;10284;58.364;15.550;2023-01-24T05:25:31;5.68;;;3.45;;
20251;SDS011;10284;58.364;15.550;2023-01-24T05:27:57;5.53;;;3.20;;
20251;SDS011;10284;58.364;15.550;2023-01-24T05:30:22;3.63;;;3.15;;
20251;SDS011;10284;58.364;15.550;2023-01-24T05:32:48;6.53;;;3.05;;
20251;SDS011;10284;58.364;15.550;2023-01-24T05:35:13;4.72;;;3.47;;
20251;SDS011;10284;58.364;15.550;2023-01-24T05:37:39;5.38;;;3.63;;
20251;SDS011;10284;58.364;15.550;2023-01-24T05:40:05;5.88;;;3.47;;
20251;SDS011;10284;58.364;15.550;2023-01-24T05:42:31;4.95;;;3.28;;
20251;SDS011;10284;58.364;15.550;2023-01-24T05:44:57;4.72;;;3.88;;
20251;SDS011;10284;58.364;15.550;2023-01-24T05:47:22;5.57;;;4.00;;
20251;SDS011;10284;58.364;15.550;2023-01-24T05:49:48;7.15;;;3.60;;
20251;SDS011;10284;58.364;15.550;2023-01-24T05:52:14;8.07;;;3.70;;
20251;SDS011;10284;58.364;15.550;2023-01-24T05:54:46;4.68;;;3.35;;
20251;SDS011;10284;58.364;15.550;2023-01-24T05:57:12;6.38;;;3.72;;
20251;SDS011;10284;58.364;15.550;2023-01-24T05:59:37;4.95;;;4.18;;
20251;SDS011;10284;58.364;15.550;2023-01-24T06:02:03;4.68;;;3.53;;
20251;SDS011;10284;58.364;15.550;2023-01-24T06:04:28;4.97;;;4.00;;
20251;SDS011;10284;58.364;15.550;2023-01-24T06:06:54;8.48;;;3.80;;
20251;SDS011;10284;58.364;15.550;2023-01-24T06:09:19;5.68;;;3.85;;
20251;SDS011;10284;58.364;15.550;2023-01-24T06:11:45;5.63;;;4.18;;
20251;SDS011;10284;58.364;15.550;2023-01-24T06:14:10;6.75;;;4.38;;
20251;SDS011;10284;58.364;15.550;2023-01-24T06:16:35;5.10;;;3.83;;
20251;SDS011;10284;58.364;15.550;2023-01-24T06:19:01;6.60;;;4.05;;
20251;SDS011;10284;58.364;15.550;2023-01-24T06:23:58;8.40;;;4.20;;
20251;SDS011;10284;58.364;15.550;2023-01-24T06:26:24;7.70;;;4.47;;
20251;SDS011;10284;58.364;15.550;2023-01-24T06:28:50;6.72;;;3.97;;
20251;SDS011;10284;58.364;15.550;2023-01-24T06:36:30;6.95;;;3.70;;
20251;SDS011;10284;58.364;15.550;2023-01-24T06:39:06;6.30;;;4.18;;
20251;SDS011;10284;58.364;15.550;2023-01-24T06:41:35;5.68;;;3.85;;
20251;SDS011;10284;58.364;15.550;2023-01-24T06:44:01;4.72;;;3.63;;
20251;SDS011;10284;58.364;15.550;2023-01-24T06:46:26;7.50;;;3.78;;
20251;SDS011;10284;58.364;15.550;2023-01-24T06:48:52;6.55;;;3.70;;
20251;SDS011;10284;58.364;15.550;2023-01-24T06:51:17;7.15;;;4.15;;
20251;SDS011;10284;58.364;15.550;2023-01-24T06:53:43;4.90;;;4.00;;
20251;SDS011;10284;58.364;15.550;2023-01-24T06:56:08;5.93;;;4.10;;
20251;SDS011;10284;58.364;15.550;2023-01-24T06:58:34;7.93;;;3.90;;
20251;SDS011;10284;58.364;15.550;2023-01-24T07:01:00;7.05;;;4.60;;
20251;SDS011;10284;58.364;15.550;2023-01-24T07:03:25;4.65;;;3.92;;
20251;SDS011;10284;58.364;15.550;2023-01-24T07:05:50;8.30;;;4.00;;
20251;SDS011;10284;58.364;15.550;2023-01-24T07:08:16;6.10;;;4.03;;
20251;SDS011;10284;58.364;15.550;2023-01-24T07:10:44;9.13;;;3.78;;
20251;SDS011;10284;58.364;15.550;2023-01-24T07:13:10;7.20;;;4.40;;
20251;SDS011;10284;58.364;15.550;2023-01-24T07:15:35;6.78;;;4.03;;
20251;SDS011;10284;58.364;15.550;2023-01-24T07:18:05;6.95;;;4.30;;
20251;SDS011;10284;58.364;15.550;2023-01-24T07:20:32;7.18;;;3.90;;
20251;SDS011;10284;58.364;15.550;2023-01-24T07:22:57;6.88;;;4.20;;
20251;SDS011;10284;58.364;15.550;2023-01-24T07:25:23;5.93;;;4.57;;
20251;SDS011;10284;58.364;15.550;2023-01-24T07:27:50;6.32;;;4.28;;
20251;SDS011;10284;58.364;15.550;2023-01-24T07:30:16;6.70;;;4.25;;
20251;SDS011;10284;58.364;15.550;2023-01-24T07:32:42;5.50;;;4.10;;
20251;SDS011;10284;58.364;15.550;2023-01-24T07:35:07;4.30;;;3.70;;
20251;SDS011;10284;58.364;15.550;2023-01-24T07:37:33;7.25;;;4.05;;
20251;SDS011;10284;58.364;15.550;2023-01-24T07:39:58;6.55;;;4.25;;
20251;SDS011;10284;58.364;15.550;2023-01-24T07:42:24;7.15;;;4.68;;
20251;SDS011;10284;58.364;15.550;2023-01-24T07:44:49;6.07;;;4.82;;
20251;SDS011;10284;58.364;15.550;2023-01-24T07:47:15;9.27;;;4.70;;
20251;SDS011;10284;58.364;15.550;2023-01-24T07:49:40;5.85;;;4.45;;
20251;SDS011;10284;58.364;15.550;2023-01-24T07:52:06;6.60;;;4.78;;
20251;SDS011;10284;58.364;15.550;2023-01-24T07:54:31;7.68;;;5.18;;
20251;SDS011;10284;58.364;15.550;2023-01-24T07:56:56;9.02;;;4.85;;
20251;SDS011;10284;58.364;15.550;2023-01-24T07:59:24;7.65;;;5.30;;
20251;SDS011;10284;58.364;15.550;2023-01-24T08:01:49;8.68;;;4.75;;
20251;SDS011;10284;58.364;15.550;2023-01-24T08:04:14;9.30;;;5.38;;
20251;SDS011;10284;58.364;15.550;2023-01-24T08:06:40;11.57;;;4.97;;
20251;SDS011;10284;58.364;15.550;2023-01-24T08:09:27;9.98;;;5.45;;
20251;SDS011;10284;58.364;15.550;2023-01-24T08:11:53;10.18;;;4.85;;
20251;SDS011;10284;58.364;15.550;2023-01-24T08:14:19;6.55;;;4.63;;
20251;SDS011;10284;58.364;15.550;2023-01-24T08:16:44;11.65;;;5.10;;
20251;SDS011;10284;58.364;15.550;2023-01-24T08:19:10;9.93;;;5.05;;
20251;SDS011;10284;58.364;15.550;2023-01-24T08:21:35;9.27;;;5.45;;
20251;SDS011;10284;58.364;15.550;2023-01-24T08:24:01;10.63;;;5.63;;
20251;SDS011;10284;58.364;15.550;2023-01-24T08:26:26;10.30;;;5.60;;
20251;SDS011;10284;58.364;15.550;2023-01-24T08:28:52;6.63;;;4.97;;
20251;SDS011;10284;58.364;15.550;2023-01-24T08:31:17;9.95;;;5.40;;
20251;SDS011;10284;58.364;15.550;2023-01-24T08:33:43;10.20;;;5.80;;
20251;SDS011;10284;58.364;15.550;2023-01-24T08:36:08;9.98;;;6.53;;
20251;SDS011;10284;58.364;15.550;2023-01-24T08:38:33;11.85;;;5.75;;
20251;SDS011;10284;58.364;15.550;2023-01-24T08:41:02;9.95;;;5.63;;
20251;SDS011;10284;58.364;15.550;2023-01-24T08:43:29;10.68;;;6.28;;
20251;SDS011;10284;58.364;15.550;2023-01-24T08:45:54;8.55;;;5.82;;
20251;SDS011;10284;58.364;15.550;2023-01-24T08:48:20;9.70;;;5.72;;
20251;SDS011;10284;58.364;15.550;2023-01-24T08:50:46;12.57;;;5.43;;
20251;SDS011;10284;58.364;15.550;2023-01-24T08:53:11;13.90;;;6.55;;
20251;SDS011;10284;58.364;15.550;2023-01-24T08:55:37;10.57;;;6.18;;
20251;SDS011;10284;58.364;15.550;2023-01-24T08:58:03;11.07;;;6.20;;
20251;SDS011;10284;58.364;15.550;2023-01-24T09:00:29;12.38;;;6.15;;
20251;SDS011;10284;58.364;15.550;2023-01-24T09:02:55;15.77;;;6.40;;
20251;SDS011;10284;58.364;15.550;2023-01-24T09:05:23;15.10;;;6.65;;
20251;SDS011;10284;58.364;15.550;2023-01-24T09:07:49;11.63;;;6.30;;
20251;SDS011;10284;58.364;15.550;2023-01-24T09:10:14;9.75;;;6.45;;
20251;SDS011;10284;58.364;15.550;2023-01-24T09:12:40;11.00;;;5.93;;
20251;SDS011;10284;58.364;15.550;2023-01-24T09:15:05;11.30;;;6.18;;
20251;SDS011;10284;58.364;15.550;2023-01-24T09:17:32;12.18;;;6.32;;
20251;SDS011;10284;58.364;15.550;2023-01-24T09:19:59;9.88;;;6.07;;
20251;SDS011;10284;58.364;15.550;2023-01-24T09:22:24;13.38;;;6.75;;
20251;SDS011;10284;58.364;15.550;2023-01-24T09:24:50;10.15;;;6.13;;
20251;SDS011;10284;58.364;15.550;2023-01-24T09:27:15;8.68;;;5.80;;
20251;SDS011;10284;58.364;15.550;2023-01-24T09:29:41;11.48;;;6.32;;
20251;SDS011;10284;58.364;15.550;2023-01-24T09:32:06;10.70;;;6.85;;
20251;SDS011;10284;58.364;15.550;2023-01-24T09:34:32;12.77;;;6.43;;
20251;SDS011;10284;58.364;15.550;2023-01-24T09:36:58;11.43;;;6.32;;
20251;SDS011;10284;58.364;15.550;2023-01-24T09:39:23;12.85;;;6.43;;
20251;SDS011;10284;58.364;15.550;2023-01-24T09:41:58;15.48;;;6.53;;
20251;SDS011;10284;58.364;15.550;2023-01-24T09:47:14;11.70;;;6.38;;
20251;SDS011;10284;58.364;15.550;2023-01-24T09:50:01;15.52;;;6.55;;
20251;SDS011;10284;58.364;15.550;2023-01-24T09:52:33;16.08;;;7.05;;
20251;SDS011;10284;58.364;15.550;2023-01-24T10:00:36;16.05;;;7.13;;
20251;SDS011;10284;58.364;15.550;2023-01-24T10:03:02;15.50;;;6.80;;
20251;SDS011;10284;58.364;15.550;2023-01-24T10:05:32;13.93;;;7.00;;
20251;SDS011;10284;58.364;15.550;2023-01-24T10:08:15;16.30;;;7.30;;
20251;SDS011;10284;58.364;15.550;2023-01-24T10:24:28;14.30;;;7.20;;
20251;SDS011;10284;58.364;15.550;2023-01-24T10:26:57;18.85;;;7.00;;
20251;SDS011;10284;58.364;15.550;2023-01-24T10:29:25;19.23;;;8.25;;
20251;SDS011;10284;58.364;15.550;2023-01-24T10:34:24;17.75;;;7.03;;
20251;SDS011;10284;58.364;15.550;2023-01-24T10:36:55;14.02;;;6.82;;
20251;SDS011;10284;58.364;15.550;2023-01-24T10:39:24;14.02;;;6.78;;
20251;SDS011;10284;58.364;15.550;2023-01-24T10:41:49;16.85;;;7.30;;
20251;SDS011;10284;58.364;15.550;2023-01-24T10:44:15;21.15;;;7.80;;
20251;SDS011;10284;58.364;15.550;2023-01-24T10:50:01;13.40;;;6.68;;
20251;SDS011;10284;58.364;15.550;2023-01-24T10:52:30;13.25;;;6.93;;
20251;SDS011;10284;58.364;15.550;2023-01-24T10:54:58;16.40;;;7.05;;
20251;SDS011;10284;58.364;15.550;2023-01-24T10:57:43;16.23;;;7.15;;
20251;SDS011;10284;58.364;15.550;2023-01-24T11:03:44;15.60;;;8.25;;
20251;SDS011;10284;58.364;15.550;2023-01-24T11:06:03;19.90;;;7.70;;
20251;SDS011;10284;58.364;15.550;2023-01-24T11:08:33;15.93;;;7.13;;
20251;SDS011;10284;58.364;15.550;2023-01-24T11:10:59;15.35;;;7.78;;
20251;SDS011;10284;58.364;15.550;2023-01-24T11:16:04;15.02;;;7.63;;
20251;SDS011;10284;58.364;15.550;2023-01-24T11:21:17;13.10;;;7.57;;
20251;SDS011;10284;58.364;15.550;2023-01-24T11:23:43;17.05;;;7.95;;
20251;SDS011;10284;58.364;15.550;2023-01-24T11:26:32;16.25;;;8.50;;
20251;SDS011;10284;58.364;15.550;2023-01-24T11:36:43;15.93;;;7.28;;
20251;SDS011;10284;58.364;15.550;2023-01-24T11:42:00;18.30;;;7.80;;
20251;SDS011;10284;58.364;15.550;2023-01-24T11:44:54;14.93;;;8.10;;
20251;SDS011;10284;58.364;15.550;2023-01-24T11:47:29;13.43;;;7.88;;
20251;SDS011;10284;58.364;15.550;2023-01-24T11:52:55;17.17;;;8.65;;
20251;SDS011;10284;58.364;15.550;2023-01-24T12:01:21;16.25;;;7.90;;
20251;SDS011;10284;58.364;15.550;2023-01-24T12:09:26;14.73;;;8.05;;
20251;SDS011;10284;58.364;15.550;2023-01-24T12:17:25;14.05;;;7.60;;
20251;SDS011;10284;58.364;15.550;2023-01-24T12:22:53;16.13;;;7.57;;
20251;SDS011;10284;58.364;15.550;2023-01-24T12:25:23;13.63;;;7.05;;
20251;SDS011;10284;58.364;15.550;2023-01-24T12:28:00;12.43;;;6.70;;
20251;SDS011;10284;58.364;15.550;2023-01-24T12:30:31;11.27;;;6.68;;
20251;SDS011;10284;58.364;15.550;2023-01-24T12:33:21;13.13;;;7.22;;
20251;SDS011;10284;58.364;15.550;2023-01-24T12:35:57;10.70;;;6.57;;
20251;SDS011;10284;58.364;15.550;2023-01-24T12:49:10;12.45;;;6.60;;
20251;SDS011;10284;58.364;15.550;2023-01-24T12:52:00;11.15;;;6.50;;
20251;SDS011;10284;58.364;15.550;2023-01-24T12:54:48;12.10;;;6.70;;
20251;SDS011;10284;58.364;15.550;2023-01-24T12:59:54;12.63;;;7.13;;
20251;SDS011;10284;58.364;15.550;2023-01-24T13:13:45;13.73;;;7.05;;
20251;SDS011;10284;58.364;15.550;2023-01-24T13:21:47;12.00;;;6.57;;
20251;SDS011;10284;58.364;15.550;2023-01-24T13:24:26;11.70;;;6.65;;
20251;SDS011;10284;58.364;15.550;2023-01-24T13:27:14;11.27;;;6.50;;
20251;SDS011;10284;58.364;15.550;2023-01-24T13:30:14;10.65;;;6.55;;
20251;SDS011;10284;58.364;15.550;2023-01-24T13:32:43;10.75;;;6.30;;
20251;SDS011;10284;58.364;15.550;2023-01-24T13:35:22;8.50;;;6.25;;
20251;SDS011;10284;58.364;15.550;2023-01-24T13:37:53;9.43;;;6.00;;
20251;SDS011;10284;58.364;15.550;2023-01-24T13:40:30;10.43;;;6.32;;
20251;SDS011;10284;58.364;15.550;2023-01-24T13:43:00;10.80;;;5.32;;
20251;SDS011;10284;58.364;15.550;2023-01-24T13:47:54;10.25;;;5.28;;
20251;SDS011;10284;58.364;15.550;2023-01-24T13:50:22;10.57;;;5.78;;
20251;SDS011;10284;58.364;15.550;2023-01-24T13:52:49;13.85;;;6.55;;
20251;SDS011;10284;58.364;15.550;2023-01-24T13:57:44;7.00;;;5.00;;
20251;SDS011;10284;58.364;15.550;2023-01-24T14:08:03;7.53;;;4.90;;
20251;SDS011;10284;58.364;15.550;2023-01-24T14:10:48;9.83;;;4.97;;
20251;SDS011;10284;58.364;15.550;2023-01-24T14:26:52;8.48;;;4.88;;
20251;SDS011;10284;58.364;15.550;2023-01-24T14:29:18;9.40;;;6.13;;
20251;SDS011;10284;58.364;15.550;2023-01-24T14:31:46;10.50;;;5.80;;
20251;SDS011;10284;58.364;15.550;2023-01-24T14:36:42;10.23;;;5.70;;
20251;SDS011;10284;58.364;15.550;2023-01-24T14:39:15;10.35;;;5.57;;
20251;SDS011;10284;58.364;15.550;2023-01-24T14:41:44;9.75;;;5.90;;
20251;SDS011;10284;58.364;15.550;2023-01-24T14:47:03;9.70;;;5.13;;
20251;SDS011;10284;58.364;15.550;2023-01-24T14:49:52;9.82;;;5.72;;
20251;SDS011;10284;58.364;15.550;2023-01-24T14:52:30;13.70;;;6.07;;
20251;SDS011;10284;58.364;15.550;2023-01-24T14:55:01;9.48;;;5.15;;
20251;SDS011;10284;58.364;15.550;2023-01-24T14:57:55;9.48;;;5.45;;
20251;SDS011;10284;58.364;15.550;2023-01-24T15:00:21;8.82;;;5.10;;
20251;SDS011;10284;58.364;15.550;2023-01-24T15:02:52;11.02;;;6.22;;
20251;SDS011;10284;58.364;15.550;2023-01-24T15:05:26;11.27;;;5.53;;
20251;SDS011;10284;58.364;15.550;2023-01-24T15:07:55;7.80;;;5.72;;
20251;SDS011;10284;58.364;15.550;2023-01-24T15:10:31;9.98;;;5.05;;
20251;SDS011;10284;58.364;15.550;2023-01-24T15:13:06;7.55;;;5.07;;
20251;SDS011;10284;58.364;15.550;2023-01-24T15:15:34;6.55;;;5.20;;
20251;SDS011;10284;58.364;15.550;2023-01-24T15:18:00;7.97;;;5.22;;
20251;SDS011;10284;58.364;15.550;2023-01-24T15:20:30;10.30;;;5.43;;
20251;SDS011;10284;58.364;15.550;2023-01-24T15:22:59;7.95;;;5.07;;
20251;SDS011;10284;58.364;15.550;2023-01-24T15:27:53;8.27;;;5.05;;
20251;SDS011;10284;58.364;15.550;2023-01-24T15:30:20;8.40;;;5.18;;
20251;SDS011;10284;58.364;15.550;2023-01-24T15:40:31;8.02;;;4.90;;
20251;SDS011;10284;58.364;15.550;2023-01-24T15:42:57;6.97;;;5.30;;
20251;SDS011;10284;58.364;15.550;2023-01-24T15:45:45;7.93;;;5.30;;
20251;SDS011;10284;58.364;15.550;2023-01-24T15:48:20;8.35;;;5.30;;
20251;SDS011;10284;58.364;15.550;2023-01-24T15:50:53;8.10;;;4.80;;
20251;SDS011;10284;58.364;15.550;2023-01-24T15:53:45;8.05;;;5.25;;
20251;SDS011;10284;58.364;15.550;2023-01-24T15:56:12;8.07;;;5.13;;
20251;SDS011;10284;58.364;15.550;2023-01-24T15:58:45;11.07;;;5.05;;
20251;SDS011;10284;58.364;15.550;2023-01-24T16:01:12;9.30;;;4.85;;
20251;SDS011;10284;58.364;15.550;2023-01-24T16:03:37;10.07;;;5.50;;
20251;SDS011;10284;58.364;15.550;2023-01-24T16:06:03;9.77;;;5.75;;
20251;SDS011;10284;58.364;15.550;2023-01-24T16:08:28;8.50;;;4.97;;
20251;SDS011;10284;58.364;15.550;2023-01-24T16:10:54;8.57;;;5.10;;
20251;SDS011;10284;58.364;15.550;2023-01-24T16:13:36;7.80;;;4.88;;
20251;SDS011;10284;58.364;15.550;2023-01-24T16:16:06;7.20;;;5.13;;
20251;SDS011;10284;58.364;15.550;2023-01-24T16:18:33;8.32;;;5.28;;
20251;SDS011;10284;58.364;15.550;2023-01-24T16:20:59;7.60;;;5.00;;
20251;SDS011;10284;58.364;15.550;2023-01-24T16:23:25;6.93;;;4.63;;
20251;SDS011;10284;58.364;15.550;2023-01-24T16:25:51;6.97;;;5.07;;
20251;SDS011;10284;58.364;15.550;2023-01-24T16:28:19;8.25;;;4.93;;
20251;SDS011;10284;58.364;15.550;2023-01-24T16:30:47;6.65;;;4.55;;
20251;SDS011;10284;58.364;15.550;2023-01-24T16:33:14;9.32;;;5.22;;
20251;SDS011;10284;58.364;15.550;2023-01-24T16:35:40;7.90;;;4.90;;
20251;SDS011;10284;58.364;15.550;2023-01-24T16:38:07;6.97;;;4.55;;
20251;SDS011;10284;58.364;15.550;2023-01-24T16:40:33;7.15;;;4.43;;
20251;SDS011;10284;58.364;15.550;2023-01-24T16:42:58;6.70;;;4.70;;
20251;SDS011;10284;58.364;15.550;2023-01-24T16:45:27;6.32;;;4.32;;
20251;SDS011;10284;58.364;15.550;2023-01-24T16:47:53;8.15;;;4.43;;
20251;SDS011;10284;58.364;15.550;2023-01-24T16:50:18;7.57;;;4.82;;
20251;SDS011;10284;58.364;15.550;2023-01-24T16:52:44;7.13;;;4.20;;
20251;SDS011;10284;58.364;15.550;2023-01-24T16:55:09;7.97;;;4.38;;
20251;SDS011;10284;58.364;15.550;2023-01-24T16:57:35;9.10;;;4.50;;
20251;SDS011;10284;58.364;15.550;2023-01-24T17:00:01;6.20;;;4.28;;
20251;SDS011;10284;58.364;15.550;2023-01-24T17:02:27;6.75;;;3.92;;
20251;SDS011;10284;58.364;15.550;2023-01-24T17:04:53;7.38;;;4.82;;
20251;SDS011;10284;58.364;15.550;2023-01-24T17:07:18;5.47;;;4.30;;
20251;SDS011;10284;58.364;15.550;2023-01-24T17:09:44;7.13;;;4.18;;
20251;SDS011;10284;58.364;15.550;2023-01-24T17:12:09;5.95;;;4.20;;
20251;SDS011;10284;58.364;15.550;2023-01-24T17:14:35;5.68;;;4.10;;
20251;SDS011;10284;58.364;15.550;2023-01-24T17:17:00;5.72;;;4.10;;
20251;SDS011;10284;58.364;15.550;2023-01-24T17:19:25;5.63;;;4.32;;
20251;SDS011;10284;58.364;15.550;2023-01-24T17:21:51;6.38;;;4.40;;